Flight Track Log - Related Links

Times and Time Zones

All times are in EDT time to prevent confusion due to time zone crossing. See the AFL150 flight status page for this flight to view local times or setup timezone preferences in your user account.

Time Position Orientation Groundspeed Altitude Reporting Facility
EDT Latitude Longitude Course Direction KTS MPH feet Rate Location/Type
Sat 06:27:00 AM 56.2171 37.0647 316° Northwest  Level FlightAware Approximate
Sat 06:28:00 AM 56.2985 36.9188 315° West  Level FlightAware Approximate
Sat 06:29:00 AM 56.3798 36.7722 315° West  Level FlightAware Approximate
Sat 06:30:00 AM 56.4608 36.6249 315° West  Level FlightAware Approximate
Sat 06:31:00 AM 56.5418 36.4771 315° West  Level FlightAware Approximate
Sat 06:32:00 AM 56.6225 36.3286 315° West  Level FlightAware Approximate
Sat 06:33:00 AM 56.7031 36.1795 315° West  Level FlightAware Approximate
Sat 06:34:00 AM 56.7835 36.0297 314° West  Level FlightAware Approximate
Sat 06:35:00 AM 56.8637 35.8793 314° West  Level FlightAware Approximate
Sat 06:36:00 AM 56.9437 35.7282 314° West  Level FlightAware Approximate
Sat 06:37:00 AM 57.0235 35.5765 314° West  Level FlightAware Approximate
Sat 06:38:00 AM 57.1032 35.4242 314° West  Level FlightAware Approximate
Sat 06:39:00 AM 57.1826 35.2712 314° West  Level FlightAware Approximate
Sat 06:40:00 AM 57.2619 35.1175 314° West  Level FlightAware Approximate
Sat 06:41:00 AM 57.3410 34.9632 314° West  Level FlightAware Approximate
Sat 06:42:00 AM 57.4199 34.8082 313° West  Level FlightAware Approximate
Sat 06:43:00 AM 57.4986 34.6525 313° West  Level FlightAware Approximate
Sat 06:44:00 AM 57.5772 34.4962 313° West  Level FlightAware Approximate
Sat 06:45:00 AM 57.6555 34.3392 313° West  Level FlightAware Approximate
Sat 06:46:00 AM 57.6855 34.2770 312° West  Level FlightAware Approximate
Sat 06:47:00 AM 57.7616 34.1157 312° West  Level FlightAware Approximate
Sat 06:48:00 AM 57.8375 33.9538 311° West  Level FlightAware Approximate
Sat 06:49:00 AM 57.9132 33.7912 311° West  Level FlightAware Approximate
Sat 06:50:00 AM 57.9887 33.6278 311° West  Level FlightAware Approximate
Sat 06:51:00 AM 58.0639 33.4639 311° West  Level FlightAware Approximate
Sat 06:52:00 AM 58.1390 33.2992 311° West  Level FlightAware Approximate
Sat 06:53:00 AM 58.2138 33.1338 311° West  Level FlightAware Approximate
Sat 06:54:00 AM 58.2884 32.9677 311° West  Level FlightAware Approximate
Sat 06:55:00 AM 58.3629 32.8009 310° West  Level FlightAware Approximate
Sat 06:55:51 AM 56.5338 31.3318 278° West 442 509 34,000  Level FlightAware ADS-B
Sat 06:56:50 AM 56.5638 31.1312 291° West 427 491 34,000  Level FlightAware ADS-B
Sat 06:57:49 AM 56.6185 30.9387 303° West 418 481 34,000  Level FlightAware ADS-B
Sat 06:58:50 AM 56.6896 30.7778 311° West 412 474 34,000  Level FlightAware ADS-B
Sat 06:59:51 AM 56.7596 30.6060 305° West 416 479 34,000  Level FlightAware ADS-B
Sat 07:00:50 AM 56.8240 30.4354 304° West 418 481 34,000  Level FlightAware ADS-B
Sat 07:01:48 AM 56.8852 30.2700 304° West 420 483 34,000  Level FlightAware ADS-B
Sat 07:02:50 AM 56.9511 30.0900 304° West 421 484 34,000  Level FlightAware ADS-B
Sat 07:03:48 AM 57.0166 29.9101 304° West 421 484 34,000  Level FlightAware ADS-B
Sat 07:04:51 AM 57.0834 29.7250 304° West 421 484 34,000  Level FlightAware ADS-B
Sat 07:05:51 AM 57.1475 29.5458 303° West 421 484 34,000  Level FlightAware ADS-B
Sat 07:06:49 AM 57.2106 29.3685 303° West 421 484 34,000  Level FlightAware ADS-B
Sat 07:07:50 AM 57.2748 29.1867 303° West 424 488 34,000  Level FlightAware ADS-B
Sat 07:08:50 AM 57.3384 29.0054 303° West 425 489 34,000  Level FlightAware ADS-B
Sat 07:09:50 AM 57.4012 28.8252 303° West 428 493 34,000  Level FlightAware ADS-B
Sat 07:10:51 AM 57.4668 28.6355 303° West 429 494 34,000  Level FlightAware ADS-B
Sat 07:11:49 AM 57.5297 28.4520 302° West 430 495 34,000  Level FlightAware ADS-B
Sat 07:12:50 AM 57.5918 28.2694 302° West 428 493 34,000  Level FlightAware ADS-B
Sat 07:13:50 AM 57.6570 28.0767 302° West 426 490 34,000  Level FlightAware ADS-B
Sat 07:14:51 AM 57.7199 27.8892 302° West 425 489 34,000  Level FlightAware ADS-B
Sat 07:15:48 AM 57.7796 27.7096 302° West 424 488 34,000  Level FlightAware ADS-B
Sat 07:16:51 AM 57.8412 27.5117 292° West 430 495 34,000  Level FlightAware ADS-B
Sat 07:17:50 AM 57.8821 27.3071 291° West 429 494 34,000  Level FlightAware ADS-B
Sat 07:18:50 AM 57.9236 27.1004 291° West 429 494 34,000  Level FlightAware ADS-B
Sat 07:19:49 AM 57.9653 26.8922 291° West 428 493 34,000  Level FlightAware ADS-B
Sat 07:20:51 AM 58.0074 26.6791 290° West 429 494 34,000  Level FlightAware ADS-B
Sat 07:21:50 AM 58.0450 26.4874 290° West 429 494 34,000  Level FlightAware ADS-B
Sat 07:22:50 AM 58.0894 26.2578 290° West 429 494 34,000  Level FlightAware ADS-B
Sat 07:23:50 AM 58.1295 26.0485 290° West 427 491 34,000  Level FlightAware ADS-B
Sat 07:24:50 AM 58.1692 25.8390 290° West 427 491 34,000  Level FlightAware ADS-B
Sat 07:25:50 AM 58.2090 25.6271 290° West 429 494 34,000  Level FlightAware ADS-B
Sat 07:26:50 AM 58.2476 25.4186 289° West 430 495 34,000  Level FlightAware ADS-B
Sat 07:27:50 AM 58.2871 25.2026 289° West 430 495 34,000  Level FlightAware ADS-B
Sat 07:29:09 AM 58.3378 24.9229 289° West 425 489 34,000  Level FlightAware ADS-B
Sat 07:30:19 AM 58.3805 24.6834 289° West 423 487 34,000  Level FlightAware ADS-B
Sat 07:31:35 AM 58.4278 24.4125 289° West 423 487 34,000  Level FlightAware ADS-B
Sat 07:34:51 AM 58.5330 23.7048 289° West 423 487 34,000  Level FlightAware ADS-B
Sat 07:46:01 AM 58.8697 21.2428 289° West 426 490 34,000  Level FlightAware ADS-B
Sat 07:46:49 AM 58.9000 21.0732 289° West 426 490 34,000  Level FlightAware ADS-B
Sat 07:47:21 AM 58.9156 20.9821 288° West 427 491 34,000  Level FlightAware ADS-B
Sat 07:48:06 AM 58.9376 20.8494 288° West 427 491 34,000 333 Level FlightAware ADS-B
Sat 07:49:45 AM 59.0027 20.4498 287° West 432 497 34,800 718 Climbing FlightAware ADS-B
Sat 07:50:28 AM 59.0307 20.2752 287° West 423 487 35,700 867 Climbing FlightAware ADS-B
Sat 07:51:08 AM 59.0536 20.1309 287° West 421 484 36,000 225 Climbing FlightAware ADS-B
Sat 07:51:48 AM 59.0762 19.9873 287° West 420 483 36,000  Level FlightAware ADS-B
Sat 07:52:29 AM 59.0992 19.8398 287° West 421 484 36,000  Level FlightAware ADS-B
Sat 07:53:09 AM 59.1217 19.6944 287° West 422 486 36,000  Level FlightAware ADS-B
Sat 07:53:47 AM 59.1416 19.5654 287° West 421 484 36,000  Level FlightAware ADS-B
Sat 07:54:28 AM 59.1641 19.4171 287° West 420 483 36,000  Level FlightAware ADS-B
Sat 07:55:08 AM 59.1871 19.2650 286° West 420 483 36,000  Level FlightAware ADS-B
Sat 07:55:48 AM 59.2087 19.1205 286° West 420 483 36,000  Level FlightAware ADS-B
Sat 07:56:30 AM 59.2314 18.9684 286° West 419 482 36,000  Level FlightAware ADS-B
Sat 07:57:09 AM 59.2508 18.8358 286° West 419 482 36,000  Level FlightAware ADS-B
Sat 07:57:50 AM 59.2740 18.6769 286° West 423 487 36,000  Level FlightAware ADS-B
Sat 07:58:29 AM 59.2946 18.5339 286° West 426 490 36,000  Level FlightAware ADS-B
Sat 07:59:09 AM 59.3163 18.3818 286° West 426 490 36,000  Level FlightAware ADS-B
Sat 07:59:49 AM 59.3358 18.2445 286° West 424 488 36,000  Level FlightAware ADS-B
Sat 08:00:29 AM 59.3575 18.0910 285° West 421 484 36,000  Level FlightAware ADS-B
Sat 08:01:09 AM 59.3768 17.9520 285° West 419 482 36,000  Level FlightAware ADS-B
Sat 08:01:49 AM 59.3970 17.8043 285° West 420 483 36,000  Level FlightAware ADS-B
Sat 08:02:29 AM 59.4175 17.6546 285° West 422 486 36,000  Level FlightAware ADS-B
Sat 08:03:08 AM 59.4373 17.5088 285° West 421 484 36,000  Level FlightAware ADS-B
Sat 08:03:51 AM 59.4574 17.3590 285° West 420 483 36,000  Level FlightAware ADS-B
Sat 08:04:29 AM 59.4773 17.2085 285° West 418 481 36,000  Level FlightAware ADS-B
Sat 08:05:11 AM 59.4973 17.0567 284° West 418 481 36,000  Level FlightAware ADS-B
Sat 08:05:51 AM 59.5161 16.9125 284° West 418 481 36,000  Level FlightAware ADS-B
Sat 08:06:30 AM 59.5355 16.7618 284° West 419 482 36,000  Level FlightAware ADS-B
Sat 08:07:10 AM 59.5540 16.6167 284° West 419 482 36,000  Level FlightAware ADS-B
Sat 08:07:51 AM 59.5720 16.4749 284° West 419 482 36,000  Level FlightAware ADS-B
Sat 08:08:25 AM 59.5877 16.3496 284° West 416 479 36,000  Level FlightAware ADS-B
Sat 08:09:19 AM 59.5916 16.3182 284° West 412 474 36,000  Level FlightAware ADS-B
Sat 08:10:30 AM 59.6387 15.9343 283° West 411 473 36,000  Level FlightAware ADS-B
Sat 08:11:04 AM 59.6610 15.7493 283° West 412 474 36,000  Level FlightAware ADS-B
Sat 08:11:36 AM 59.6751 15.6301 282° West 410 472 36,000  Level FlightAware ADS-B
Sat 08:12:06 AM 59.6874 15.5255 282° West 410 472 36,000  Level FlightAware ADS-B
Sat 08:12:40 AM 59.7022 15.3991 282° West 410 472 36,000  Level FlightAware ADS-B
Sat 08:13:26 AM 59.7219 15.2296 282° West 411 473 36,000  Level FlightAware ADS-B
Sat 08:13:59 AM 59.7359 15.1080 282° West 412 474 36,000  Level FlightAware ADS-B
Sat 08:14:30 AM 59.7489 14.9933 282° West 412 474 36,000  Level FlightAware ADS-B
Sat 08:15:03 AM 59.7629 14.8699 282° West 412 474 36,000  Level FlightAware ADS-B
Sat 08:15:39 AM 59.7774 14.7400 281° West 411 473 36,000  Level FlightAware ADS-B
Sat 08:16:18 AM 59.7930 14.5989 281° West 412 474 36,000  Level FlightAware ADS-B
Sat 08:17:04 AM 59.8119 14.4263 281° West 413 475 36,000  Level FlightAware ADS-B
Sat 08:17:34 AM 59.8239 14.3138 282° West 415 478 36,000  Level FlightAware ADS-B
Sat 08:18:04 AM 59.8361 14.1997 282° West 415 478 36,000  Level FlightAware ADS-B
Sat 08:18:35 AM 59.8480 14.0877 282° West 416 479 36,000  Level FlightAware ADS-B
Sat 08:19:05 AM 59.8601 13.9729 282° West 417 480 36,000  Level FlightAware ADS-B
Sat 08:19:37 AM 59.8724 13.8548 282° West 417 480 36,000  Level FlightAware ADS-B
Sat 08:20:22 AM 59.8899 13.6842 282° West 415 478 36,000  Level FlightAware ADS-B
Sat 08:20:54 AM 59.9017 13.5687 281° West 414 476 36,000  Level FlightAware ADS-B
Sat 08:21:27 AM 59.9145 13.4423 281° West 415 478 36,000  Level FlightAware ADS-B
Sat 08:21:57 AM 59.9256 13.3312 281° West 415 478 36,000  Level FlightAware ADS-B
Sat 08:22:29 AM 59.9376 13.2112 282° West 417 480 36,000  Level FlightAware ADS-B
Sat 08:22:59 AM 59.9543 13.0995 286° West 417 480 36,000  Level FlightAware ADS-B
Sat 08:23:32 AM 59.9725 12.9779 286° West 418 481 36,000  Level FlightAware ADS-B
Sat 08:24:02 AM 59.9883 12.8715 286° West 419 482 36,000  Level FlightAware ADS-B
Sat 08:24:32 AM 60.0058 12.7535 286° West 420 483 36,000  Level FlightAware ADS-B
Sat 08:25:02 AM 60.0222 12.6427 285° West 421 484 36,000  Level FlightAware ADS-B
Sat 08:25:47 AM 60.0466 12.4745 286° West 426 490 36,000  Level FlightAware ADS-B
Sat 08:26:18 AM 60.0634 12.3586 286° West 427 491 36,000  Level FlightAware ADS-B
Sat 08:26:48 AM 60.0800 12.2439 286° West 428 493 36,000  Level FlightAware ADS-B
Sat 08:27:21 AM 60.0975 12.1207 286° West 428 493 36,000  Level FlightAware ADS-B
Sat 08:27:53 AM 60.1151 11.9965 286° West 428 493 36,000  Level FlightAware ADS-B
Sat 08:28:38 AM 60.1395 11.8223 286° West 429 494 36,000  Level FlightAware ADS-B
Sat 08:29:08 AM 60.1550 11.7114 286° West 430 495 36,000  Level FlightAware ADS-B
Sat 08:29:39 AM 60.1717 11.5892 285° West 431 496 36,000  Level FlightAware ADS-B
Sat 08:30:10 AM 60.1874 11.4745 285° West 430 495 36,000  Level FlightAware ADS-B
Sat 08:30:40 AM 60.2036 11.3554 285° West 431 496 36,000  Level FlightAware ADS-B
Sat 08:33:00 AM 60.2721 10.8331 285° West  Level Estimated
Sat 08:34:00 AM 60.3008 10.6086 285° West  Level Estimated
Sat 08:35:00 AM 60.3292 10.3837 284° West  Level Estimated
Sat 08:36:00 AM 60.3571 10.1585 284° West  Level Estimated
Sat 08:37:00 AM 60.3847 9.9328 284° West  Level Estimated
Sat 08:38:00 AM 60.4119 9.7068 284° West  Level Estimated
Sat 08:39:00 AM 60.4387 9.4804 284° West  Level Estimated
Sat 08:40:00 AM 60.4651 9.2536 283° West  Level Estimated
Sat 08:41:00 AM 60.4912 9.0264 283° West  Level Estimated
Sat 08:42:00 AM 60.5168 8.7989 283° West  Level Estimated
Sat 08:43:00 AM 60.5421 8.5710 283° West  Level Estimated
Sat 08:44:00 AM 60.5670 8.3428 283° West  Level Estimated
Sat 08:45:00 AM 60.5915 8.1142 282° West  Level Estimated
Sat 08:46:00 AM 60.6156 7.8853 282° West  Level Estimated
Sat 08:47:00 AM 60.6393 7.6560 282° West  Level Estimated
Sat 08:48:00 AM 60.6626 7.4264 282° West  Level Estimated
Sat 08:49:00 AM 60.6855 7.1965 282° West  Level Estimated
Sat 08:50:00 AM 60.7080 6.9663 281° West  Level Estimated
Sat 08:51:00 AM 60.7302 6.7357 281° West  Level Estimated
Sat 08:52:00 AM 60.7519 6.5048 281° West  Level Estimated
Sat 08:53:00 AM 60.7732 6.2736 281° West  Level Estimated
Sat 08:54:00 AM 60.7942 6.0421 281° West  Level Estimated
Sat 08:55:00 AM 60.8147 5.8103 280° West  Level Estimated
Sat 08:56:00 AM 60.8349 5.5782 280° West  Level Estimated
Sat 08:57:00 AM 60.8546 5.3458 280° West  Level Estimated
Sat 08:58:00 AM 60.8739 5.1132 280° West  Level Estimated
Sat 08:59:00 AM 60.8929 4.8802 280° West  Level Estimated
Sat 09:00:00 AM 60.9114 4.6470 279° West  Level Estimated
Sat 09:01:00 AM 60.9295 4.4135 279° West  Level Estimated
Sat 09:02:00 AM 60.9473 4.1797 279° West  Level Estimated
Sat 09:03:00 AM 60.9646 3.9457 279° West  Level Estimated
Sat 09:04:00 AM 60.9815 3.7115 279° West  Level Estimated
Sat 09:05:00 AM 60.9980 3.4770 278° West  Level Estimated
Sat 09:06:00 AM 61.0141 3.2422 278° West  Level Estimated
Sat 09:07:00 AM 61.0298 3.0072 278° West  Level Estimated
Sat 09:08:00 AM 61.0451 2.7720 278° West  Level Estimated
Sat 09:09:00 AM 61.0599 2.5366 278° West  Level Estimated
Sat 09:10:00 AM 61.0744 2.3009 277° West  Level Estimated
Sat 09:11:00 AM 61.0885 2.0650 277° West  Level Estimated
Sat 09:12:00 AM 61.1021 1.8290 277° West  Level Estimated
Sat 09:13:00 AM 61.1153 1.5927 277° West  Level Estimated
Sat 09:14:00 AM 61.1282 1.3562 277° West  Level Estimated
Sat 09:15:00 AM 61.1405 1.1196 276° West  Level Estimated
Sat 09:16:00 AM 61.1525 0.8827 276° West  Level Estimated
Sat 09:17:00 AM 61.1641 0.6457 276° West  Level Estimated
Sat 09:18:00 AM 61.1753 0.4085 276° West  Level Estimated
Sat 09:19:00 AM 61.1860 0.1711 275° West  Level Estimated
Sat 09:20:00 AM 61.1964 -0.0664 275° West  Level Estimated
Sat 09:21:00 AM 61.2063 -0.3040 275° West  Level Estimated
Sat 09:22:00 AM 61.2158 -0.5418 275° West  Level Estimated
Sat 09:23:00 AM 61.2249 -0.7798 275° West  Level Estimated
Sat 09:24:00 AM 61.2335 -1.0179 274° West  Level Estimated
Sat 09:25:00 AM 61.2418 -1.2561 274° West  Level Estimated
Sat 09:26:00 AM 61.2496 -1.4944 274° West  Level Estimated
Sat 09:27:00 AM 61.2570 -1.7329 274° West  Level Estimated
Sat 09:28:00 AM 61.2640 -1.9715 274° West  Level Estimated
Sat 09:29:00 AM 61.2706 -2.2101 273° West  Level Estimated
Sat 09:30:00 AM 61.2767 -2.4489 273° West  Level Estimated
Sat 09:31:00 AM 61.2825 -2.6878 273° West  Level Estimated
Sat 09:32:00 AM 61.2878 -2.9267 273° West  Level Estimated
Sat 09:33:00 AM 61.2927 -3.1657 273° West  Level Estimated
Sat 09:34:00 AM 61.2971 -3.4048 272° West  Level Estimated
Sat 09:35:00 AM 61.3012 -3.6439 272° West  Level Estimated
Sat 09:36:00 AM 61.3048 -3.8832 272° West  Level Estimated
Sat 09:37:00 AM 61.3081 -4.1224 272° West  Level Estimated
Sat 09:38:00 AM 61.3108 -4.3617 271° West  Level Estimated
Sat 09:39:00 AM 61.3132 -4.6011 271° West  Level Estimated
Sat 09:40:00 AM 61.3152 -4.8404 271° West  Level Estimated
Sat 09:41:00 AM 61.3167 -5.0799 271° West  Level Estimated
Sat 09:42:00 AM 61.3178 -5.3193 271° West  Level Estimated
Sat 09:43:00 AM 61.3185 -5.5587 270° West  Level Estimated
Sat 09:44:00 AM 61.3188 -5.7982 270° West  Level Estimated
Sat 09:45:00 AM 61.3186 -6.0376 270° West  Level Estimated
Sat 09:46:00 AM 61.3180 -6.2771 270° West  Level Estimated
Sat 09:47:00 AM 61.3170 -6.5165 270° West  Level Estimated
Sat 09:48:00 AM 61.3156 -6.7559 269° West  Level Estimated
Sat 09:49:00 AM 61.3138 -6.9953 269° West  Level Estimated
Sat 09:50:00 AM 61.3115 -7.2347 269° West  Level Estimated
Sat 09:51:00 AM 61.3088 -7.4740 269° West  Level Estimated
Sat 09:52:00 AM 61.3057 -7.7133 269° West  Level Estimated
Sat 09:53:00 AM 61.3022 -7.9525 268° West  Level Estimated
Sat 09:54:00 AM 61.2982 -8.1917 268° West  Level Estimated
Sat 09:55:00 AM 61.2939 -8.4307 268° West  Level Estimated
Sat 09:56:00 AM 61.2891 -8.6698 268° West  Level Estimated
Sat 09:57:00 AM 61.2839 -8.9087 268° West  Level Estimated
Sat 09:58:00 AM 61.2783 -9.1476 267° West  Level Estimated
Sat 09:59:00 AM 61.2722 -9.3864 267° West  Level Estimated
Sat 10:00:00 AM 61.2658 -9.6251 267° West  Level Estimated
Sat 10:01:00 AM 61.2589 -9.8637 267° West  Level Estimated
Sat 10:02:00 AM 61.2516 -10.1022 266° West  Level Estimated
Sat 10:03:00 AM 61.2438 -10.3406 266° West  Level Estimated
Sat 10:04:00 AM 61.2357 -10.5788 266° West  Level Estimated
Sat 10:05:00 AM 61.2271 -10.8169 266° West  Level Estimated
Sat 10:06:00 AM 61.2182 -11.0549 266° West  Level Estimated
Sat 10:07:00 AM 61.2088 -11.2928 265° West  Level Estimated
Sat 10:08:00 AM 61.1990 -11.5305 265° West  Level Estimated
Sat 10:09:00 AM 61.1888 -11.7680 265° West  Level Estimated
Sat 10:10:00 AM 61.1781 -12.0054 265° West  Level Estimated
Sat 10:11:00 AM 61.1671 -12.2427 265° West  Level Estimated
Sat 10:12:00 AM 61.1556 -12.4797 264° West  Level Estimated
Sat 10:13:00 AM 61.1437 -12.7166 264° West  Level Estimated
Sat 10:14:00 AM 61.1314 -12.9533 264° West  Level Estimated
Sat 10:15:00 AM 61.1187 -13.1898 264° West  Level Estimated
Sat 10:16:00 AM 61.1056 -13.4262 264° West  Level Estimated
Sat 10:17:00 AM 61.0920 -13.6623 263° West  Level Estimated
Sat 10:18:00 AM 61.0781 -13.8982 263° West  Level Estimated
Sat 10:19:00 AM 61.0637 -14.1339 263° West  Level Estimated
Sat 10:20:00 AM 61.0490 -14.3694 263° West  Level Estimated
Sat 10:21:00 AM 61.0338 -14.6047 263° West  Level Estimated
Sat 10:22:00 AM 61.0182 -14.8398 262° West  Level Estimated
Sat 10:23:00 AM 61.0022 -15.0746 262° West  Level Estimated
Sat 10:24:00 AM 60.9858 -15.3091 262° West  Level Estimated
Sat 10:25:00 AM 60.9690 -15.5435 262° West  Level Estimated
Sat 10:26:00 AM 60.9518 -15.7775 261° West  Level Estimated
Sat 10:27:00 AM 60.9342 -16.0114 261° West  Level Estimated
Sat 10:28:00 AM 60.9161 -16.2449 261° West  Level Estimated
Sat 10:29:00 AM 60.8977 -16.4782 261° West  Level Estimated
Sat 10:30:00 AM 60.8789 -16.7112 261° West  Level Estimated
Sat 10:31:00 AM 60.8596 -16.9440 260° West  Level Estimated
Sat 10:32:00 AM 60.8400 -17.1764 260° West  Level Estimated
Sat 10:33:00 AM 60.8200 -17.4086 260° West  Level Estimated
Sat 10:34:00 AM 60.7995 -17.6405 260° West  Level Estimated
Sat 10:35:00 AM 60.7787 -17.8721 260° West  Level Estimated
Sat 10:36:00 AM 60.7575 -18.1033 259° West  Level Estimated
Sat 10:37:00 AM 60.7358 -18.3343 259° West  Level Estimated
Sat 10:38:00 AM 60.7138 -18.5650 259° West  Level Estimated
Sat 10:39:00 AM 60.6914 -18.7953 259° West  Level Estimated
Sat 10:40:00 AM 60.6686 -19.0253 259° West  Level Estimated
Sat 10:41:00 AM 60.6454 -19.2550 258° West  Level Estimated
Sat 10:42:00 AM 60.6217 -19.4843 258° West  Level Estimated
Sat 10:43:00 AM 60.5978 -19.7133 258° West  Level Estimated
Sat 10:44:00 AM 60.5734 -19.9420 258° West  Level Estimated
Sat 10:45:00 AM 60.5486 -20.1703 258° West  Level Estimated
Sat 10:46:00 AM 60.5234 -20.3983 257° West  Level Estimated
Sat 10:47:00 AM 60.4979 -20.6259 257° West  Level Estimated
Sat 10:48:00 AM 60.4719 -20.8531 257° West  Level Estimated
Sat 10:49:00 AM 60.4456 -21.0800 257° West  Level Estimated
Sat 10:50:00 AM 60.4189 -21.3065 257° West  Level Estimated
Sat 10:51:00 AM 60.3918 -21.5327 256° West  Level Estimated
Sat 10:52:00 AM 60.3643 -21.7584 256° West  Level Estimated
Sat 10:53:00 AM 60.3364 -21.9838 256° West  Level Estimated
Sat 10:54:00 AM 60.3082 -22.2088 256° West  Level Estimated
Sat 10:55:00 AM 60.2796 -22.4334 256° West  Level Estimated
Sat 10:56:00 AM 60.2506 -22.6576 255° West  Level Estimated
Sat 10:57:00 AM 60.2212 -22.8814 255° West  Level Estimated
Sat 10:58:00 AM 60.1914 -23.1048 255° West  Level Estimated
Sat 10:59:00 AM 60.1613 -23.3278 255° West  Level Estimated
Sat 11:00:00 AM 60.1308 -23.5504 255° West  Level Estimated
Sat 11:01:00 AM 60.0999 -23.7726 255° West  Level Estimated
Sat 11:02:00 AM 60.0687 -23.9943 254° West  Level Estimated
Sat 11:03:00 AM 60.0371 -24.2156 254° West  Level Estimated
Sat 11:04:00 AM 60.0051 -24.4365 254° West  Level Estimated
Sat 11:05:00 AM 59.9728 -24.6570 254° West  Level Estimated
Sat 11:06:00 AM 59.9400 -24.8770 254° West  Level Estimated
Sat 11:07:00 AM 59.9069 -25.0966 253° West  Level Estimated
Sat 11:08:00 AM 59.8735 -25.3158 253° West  Level Estimated
Sat 11:09:00 AM 59.8397 -25.5345 253° West  Level Estimated
Sat 11:10:00 AM 59.8055 -25.7528 253° West  Level Estimated
Sat 11:11:00 AM 59.7710 -25.9706 253° West  Level Estimated
Sat 11:12:00 AM 59.7361 -26.1880 252° West  Level Estimated
Sat 11:13:00 AM 59.7008 -26.4049 252° West  Level Estimated
Sat 11:14:00 AM 59.6652 -26.6214 252° West  Level Estimated
Sat 11:15:00 AM 59.6292 -26.8374 252° West  Level Estimated
Sat 11:16:00 AM 59.5929 -27.0529 252° West  Level Estimated
Sat 11:17:00 AM 59.5562 -27.2680 251° West  Level Estimated
Sat 11:18:00 AM 59.5192 -27.4826 251° West  Level Estimated
Sat 11:19:00 AM 59.4818 -27.6967 251° West  Level Estimated
Sat 11:20:00 AM 59.4441 -27.9103 251° West  Level Estimated
Sat 11:21:00 AM 59.4060 -28.1235 251° West  Level Estimated
Sat 11:22:00 AM 59.3676 -28.3362 251° West  Level Estimated
Sat 11:23:00 AM 59.3288 -28.5484 250° West  Level Estimated
Sat 11:24:00 AM 59.2897 -28.7601 250° West  Level Estimated
Sat 11:25:00 AM 59.2503 -28.9713 250° West  Level Estimated
Sat 11:26:00 AM 59.2105 -29.1821 250° West  Level Estimated
Sat 11:27:00 AM 59.1704 -29.3923 250° West  Level Estimated
Sat 11:28:00 AM 59.1299 -29.6021 249° West  Level Estimated
Sat 11:29:00 AM 59.0891 -29.8113 249° West  Level Estimated
Sat 11:30:00 AM 59.0479 -30.0201 249° West  Level Estimated
Sat 11:31:00 AM 59.0065 -30.2283 249° West  Level Estimated
Sat 11:32:00 AM 58.9646 -30.4361 249° West  Level Estimated
Sat 11:33:00 AM 58.9225 -30.6433 249° West  Level Estimated
Sat 11:34:00 AM 58.8800 -30.8501 248° West  Level Estimated
Sat 11:35:00 AM 58.8372 -31.0563 248° West  Level Estimated
Sat 11:36:00 AM 58.7941 -31.2620 248° West  Level Estimated
Sat 11:37:00 AM 58.7506 -31.4672 248° West  Level Estimated
Sat 11:38:00 AM 58.7068 -31.6719 248° West  Level Estimated
Sat 11:39:00 AM 58.6627 -31.8761 248° West  Level Estimated
Sat 11:40:00 AM 58.6183 -32.0797 247° West  Level Estimated
Sat 11:41:00 AM 58.5735 -32.2829 247° West  Level Estimated
Sat 11:42:00 AM 58.5285 -32.4855 247° West  Level Estimated
Sat 11:43:00 AM 58.4831 -32.6876 247° West  Level Estimated
Sat 11:44:00 AM 58.4374 -32.8891 247° West  Level Estimated
Sat 11:45:00 AM 58.3913 -33.0902 246° West  Level Estimated
Sat 11:46:00 AM 58.3450 -33.2907 246° West  Level Estimated
Sat 11:47:00 AM 58.2984 -33.4907 246° West  Level Estimated
Sat 11:48:00 AM 58.2514 -33.6902 246° West  Level Estimated
Sat 11:49:00 AM 58.2041 -33.8891 246° West  Level Estimated
Sat 11:50:00 AM 58.1565 -34.0875 246° West  Level Estimated
Sat 11:51:00 AM 58.1087 -34.2854 245° Southwest  Level Estimated
Sat 11:52:00 AM 58.0605 -34.4827 245° Southwest  Level Estimated
Sat 11:53:00 AM 58.0120 -34.6796 245° Southwest  Level Estimated
Sat 11:54:00 AM 57.9632 -34.8758 245° Southwest  Level Estimated
Sat 11:55:00 AM 57.9141 -35.0716 245° Southwest  Level Estimated
Sat 11:56:00 AM 57.8647 -35.2668 245° Southwest  Level Estimated
Sat 11:57:00 AM 57.8150 -35.4614 244° Southwest  Level Estimated
Sat 11:58:00 AM 57.7650 -35.6556 244° Southwest  Level Estimated
Sat 11:59:00 AM 57.7147 -35.8492 244° Southwest  Level Estimated
Sat 12:00:00 PM 57.6641 -36.0422 244° Southwest  Level Estimated
Sat 12:01:00 PM 57.6132 -36.2347 244° Southwest  Level Estimated
Sat 12:02:00 PM 57.5620 -36.4267 244° Southwest  Level Estimated
Sat 12:03:00 PM 57.5106 -36.6181 243° Southwest  Level Estimated
Sat 12:04:00 PM 57.4588 -36.8090 243° Southwest  Level Estimated
Sat 12:05:00 PM 57.4068 -36.9994 243° Southwest  Level Estimated
Sat 12:06:00 PM 57.3545 -37.1892 243° Southwest  Level Estimated
Sat 12:07:00 PM 57.3018 -37.3784 243° Southwest  Level Estimated
Sat 12:08:00 PM 57.2490 -37.5672 243° Southwest  Level Estimated
Sat 12:09:00 PM 57.1958 -37.7553 243° Southwest  Level Estimated
Sat 12:10:00 PM 57.1423 -37.9430 242° Southwest  Level Estimated
Sat 12:11:00 PM 57.0886 -38.1301 242° Southwest  Level Estimated
Sat 12:12:00 PM 57.0346 -38.3166 242° Southwest  Level Estimated
Sat 12:13:00 PM 56.9803 -38.5026 242° Southwest  Level Estimated
Sat 12:14:00 PM 56.9257 -38.6881 242° Southwest  Level Estimated
Sat 12:15:00 PM 56.8709 -38.8730 242° Southwest  Level Estimated
Sat 12:16:00 PM 56.8158 -39.0574 241° Southwest  Level Estimated
Sat 12:17:00 PM 56.7604 -39.2413 241° Southwest  Level Estimated
Sat 12:18:00 PM 56.7047 -39.4245 241° Southwest  Level Estimated
Sat 12:19:00 PM 56.6488 -39.6073 241° Southwest  Level Estimated
Sat 12:20:00 PM 56.5926 -39.7895 241° Southwest  Level Estimated
Sat 12:21:00 PM 56.5362 -39.9712 241° Southwest  Level Estimated
Sat 12:22:00 PM 56.4795 -40.1523 241° Southwest  Level Estimated
Sat 12:23:00 PM 56.4225 -40.3329 240° Southwest  Level Estimated
Sat 12:24:00 PM 56.3652 -40.5130 240° Southwest  Level Estimated
Sat 12:25:00 PM 56.3077 -40.6925 240° Southwest  Level Estimated
Sat 12:26:00 PM 56.2500 -40.8714 240° Southwest  Level Estimated
Sat 12:27:00 PM 56.1920 -41.0498 240° Southwest  Level Estimated
Sat 12:28:00 PM 56.1337 -41.2277 240° Southwest  Level Estimated
Sat 12:29:00 PM 56.0751 -41.4050 239° Southwest  Level Estimated
Sat 12:30:00 PM 56.0164 -41.5819 239° Southwest  Level Estimated
Sat 12:31:00 PM 55.9573 -41.7581 239° Southwest  Level Estimated
Sat 12:32:00 PM 55.8980 -41.9338 239° Southwest  Level Estimated
Sat 12:33:00 PM 55.8385 -42.1090 239° Southwest  Level Estimated
Sat 12:34:00 PM 55.7769 -42.2891 239° Southwest  Level Estimated
Sat 12:35:00 PM 55.7150 -42.4686 239° Southwest  Level Estimated
Sat 12:36:00 PM 55.6528 -42.6476 238° Southwest  Level Estimated
Sat 12:37:00 PM 55.5904 -42.8260 238° Southwest  Level Estimated
Sat 12:38:00 PM 55.5277 -43.0037 238° Southwest  Level Estimated
Sat 12:39:00 PM 55.4647 -43.1810 238° Southwest  Level Estimated
Sat 12:40:00 PM 55.4015 -43.3577 238° Southwest  Level Estimated
Sat 12:41:00 PM 55.3381 -43.5338 238° Southwest  Level Estimated
Sat 12:42:00 PM 55.2744 -43.7093 238° Southwest  Level Estimated
Sat 12:43:00 PM 55.2104 -43.8843 237° Southwest  Level Estimated
Sat 12:44:00 PM 55.1462 -44.0587 237° Southwest  Level Estimated
Sat 12:45:00 PM 55.0817 -44.2326 237° Southwest  Level Estimated
Sat 12:46:00 PM 55.0170 -44.4059 237° Southwest  Level Estimated
Sat 12:47:00 PM 54.9521 -44.5786 237° Southwest  Level Estimated
Sat 12:48:00 PM 54.8869 -44.7508 237° Southwest  Level Estimated
Sat 12:49:00 PM 54.8215 -44.9224 237° Southwest  Level Estimated
Sat 12:49:14 PM 62.2333 -59.0333 236° Southwest 240 276 36,000  Level Gander Center
Sat 12:49:44 PM 62.2167 -59.0833 234° Southwest 350 403 36,000  Level Montreal Center
Sat 12:50:00 PM 54.7558 -45.0935 236° Southwest  Level Estimated
Sat 12:50:14 PM 62.1833 -59.3000 252° West 410 472 36,000  Level Gander Center
Sat 12:51:00 PM 54.6899 -45.2640 236° Southwest  Level Estimated
Sat 12:51:14 PM 62.1333 -59.4667 237° Southwest 420 483 36,000  Level Gander Center
Sat 12:51:44 PM 62.1000 -59.5000 205° Southwest 410 472 36,000  Level Montreal Center
Sat 12:52:00 PM 54.6237 -45.4339 236° Southwest  Level Estimated
Sat 12:52:44 PM 62.0500 -59.7167 244° Southwest 410 472 36,000  Level Montreal Center
Sat 12:53:00 PM 54.5573 -45.6033 236° Southwest  Level Estimated
Sat 12:53:14 PM 62.0167 -59.9000 249° West 420 483 36,000  Level Gander Center
Sat 12:54:00 PM 54.4907 -45.7722 236° Southwest  Level Estimated
Sat 12:54:14 PM 61.9500 -60.1167 237° Southwest 420 483 36,000  Level Gander Center
Sat 12:54:47 PM 61.9000 -60.2333 228° Southwest 410 472 36,000  Level Gander Center
Sat 12:55:44 PM 61.8667 -60.3333 235° Southwest 410 472 36,000  Level Montreal Center
Sat 12:56:44 PM 61.8000 -60.5333 235° Southwest 410 472 36,000  Level Montreal Center
Sat 12:57:14 PM 61.7667 -60.7167 249° West 420 483 36,000  Level Gander Center
Sat 12:57:44 PM 61.7333 -60.7500 205° Southwest 410 472 36,000  Level Montreal Center
Sat 12:58:44 PM 61.6667 -60.9333 233° Southwest 410 472 36,000  Level Montreal Center
Sat 12:59:44 PM 61.6000 -61.1000 230° Southwest 400 460 36,000  Level Montreal Center
Sat 01:00:14 PM 61.5667 -61.2833 249° West 400 460 36,000  Level Gander Center
Sat 01:01:14 PM 61.5000 -61.4500 230° Southwest 390 449 36,000  Level Gander Center
Sat 01:02:14 PM 61.4333 -61.6333 233° Southwest 410 472 36,000  Level Gander Center
Sat 01:03:14 PM 61.3667 -61.8333 235° Southwest 410 472 36,000  Level Gander Center
Sat 01:03:44 PM 61.3167 -61.8667 198° South 410 472 36,000  Level Montreal Center
Sat 01:04:14 PM 61.3000 -62.0500 259° West 410 472 36,000  Level Gander Center
Sat 01:04:44 PM 61.2500 -62.0833 198° South 410 472 36,000  Level Montreal Center
Sat 01:05:14 PM 61.2333 -62.2167 255° West 410 472 36,000  Level Gander Center
Sat 01:06:14 PM 61.1667 -62.4167 235° Southwest 400 460 36,000  Level Gander Center
Sat 01:07:14 PM 61.0833 -62.5833 224° Southwest 400 460 36,000  Level Gander Center
Sat 01:07:47 PM 61.0500 -62.7167 243° Southwest 410 472 36,000  Level Gander Center
Sat 01:08:44 PM 60.9833 -62.7833 206° Southwest 410 472 36,000  Level Montreal Center
Sat 01:09:44 PM 60.9167 -63.0000 238° Southwest 400 460 36,000  Level Montreal Center
Sat 01:10:14 PM 60.8833 -63.1667 248° West 400 460 36,000  Level Gander Center
Sat 01:10:44 PM 60.8500 -63.2000 206° Southwest 400 460 36,000  Level Montreal Center
Sat 01:11:44 PM 60.7833 -63.3667 231° Southwest 400 460 36,000  Level Montreal Center
Sat 01:12:14 PM 60.7500 -63.5333 248° West 410 472 36,000  Level Gander Center
Sat 01:12:47 PM 60.7167 -63.6333 236° Southwest 400 460 36,000  Level Gander Center
Sat 01:13:47 PM 60.6500 -63.7833 228° Southwest 400 460 36,000  Level Gander Center
Sat 01:14:44 PM 60.5833 -63.9167 225° Southwest 400 460 36,000  Level Montreal Center
Sat 01:15:44 PM 60.5167 -64.0833 231° Southwest 400 460 36,000  Level Montreal Center
Sat 01:16:44 PM 60.4333 -64.2500 225° Southwest 390 449 36,000  Level Montreal Center
Sat 01:17:14 PM 60.4167 -64.4167 259° West 400 460 36,000  Level Gander Center
Sat 01:17:44 PM 60.3667 -64.4500 198° South 400 460 36,000  Level Montreal Center
Sat 01:18:44 PM 60.3000 -64.6000 228° Southwest 390 449 36,000  Level Montreal Center
Sat 01:19:44 PM 60.2333 -64.8000 236° Southwest 390 449 36,000  Level Montreal Center
Sat 01:20:14 PM 60.2000 -64.9333 243° Southwest 390 449 36,000  Level Gander Center
Sat 01:21:14 PM 60.1333 -65.0833 228° Southwest 390 449 36,000  Level Gander Center
Sat 01:21:44 PM 60.0833 -65.1167 198° South 390 449 36,000  Level Montreal Center
Sat 01:22:44 PM 60.0167 -65.2833 231° Southwest 400 460 36,000  Level Montreal Center
Sat 01:23:44 PM 59.9167 -65.4167 214° Southwest 400 460 36,000  Level Montreal Center
Sat 01:24:14 PM 59.8833 -65.5667 246° West 400 460 36,000  Level Gander Center
Sat 01:24:44 PM 59.8500 -65.5667 180° South 400 460 36,000  Level Montreal Center
Sat 01:25:44 PM 59.7667 -65.7000 219° Southwest 400 460 36,000  Level Montreal Center
Sat 01:26:44 PM 59.6667 -65.8500 217° Southwest 400 460 36,000  Level Montreal Center
Sat 01:27:14 PM 59.6333 -66.0000 246° West 410 472 36,000  Level Gander Center
Sat 01:28:14 PM 59.5500 -66.1500 222° Southwest 400 460 36,000  Level Gander Center
Sat 01:28:47 PM 59.5000 -66.2000 207° Southwest 410 472 36,000  Level Gander Center
Sat 01:29:44 PM 59.4167 -66.3000 211° Southwest 400 460 36,000  Level Montreal Center
Sat 01:30:44 PM 59.3167 -66.4167 211° Southwest 400 460 36,000  Level Montreal Center
Sat 01:31:44 PM 59.2500 -66.5667 229° Southwest 400 460 36,000  Level Montreal Center
Sat 01:32:44 PM 59.1667 -66.7333 226° Southwest 400 460 36,000  Level Montreal Center
Sat 01:33:44 PM 59.0667 -66.8500 211° Southwest 410 472 36,000  Level Montreal Center
Sat 01:34:44 PM 59.0000 -67.0000 229° Southwest 410 472 36,000  Level Montreal Center
Sat 01:35:44 PM 58.9000 -67.1333 215° Southwest 410 472 36,000  Level Montreal Center
Sat 01:36:44 PM 58.8000 -67.2833 218° Southwest 400 460 36,000  Level Montreal Center
Sat 01:37:44 PM 58.7333 -67.4333 229° Southwest 400 460 36,000  Level Montreal Center
Sat 01:38:44 PM 58.6333 -67.5500 211° Southwest 400 460 36,000  Level Montreal Center
Sat 01:39:44 PM 58.5500 -67.7000 223° Southwest 400 460 36,000  Level Montreal Center
Sat 01:40:44 PM 58.4667 -67.8167 216° Southwest 400 460 36,000  Level Montreal Center
Sat 01:41:14 PM 58.4167 -67.9333 231° Southwest 410 472 36,000  Level Gander Center
Sat 01:42:14 PM 58.3333 -68.0833 223° Southwest 410 472 36,000  Level Gander Center
Sat 01:42:44 PM 58.2833 -68.1167 199° South 410 472 36,000  Level Montreal Center
Sat 01:43:44 PM 58.2000 -68.2667 224° Southwest 410 472 36,000  Level Montreal Center
Sat 01:44:44 PM 58.1000 -68.4167 218° Southwest 410 472 36,000  Level Montreal Center
Sat 01:45:55 PM 58.0000 -68.5167 208° Southwest 420 483 36,000  Level Montreal Center
Sat 01:46:55 PM 57.9167 -68.6333 217° Southwest 410 472 36,000  Level Montreal Center
Sat 01:47:55 PM 57.8000 -68.7500 208° Southwest 410 472 36,000  Level Montreal Center
Sat 01:48:55 PM 57.7000 -68.8667 212° Southwest 410 472 36,000  Level Montreal Center
Sat 01:49:55 PM 57.6167 -68.9833 217° Southwest 410 472 36,000  Level Montreal Center
Sat 01:50:55 PM 57.5167 -69.1000 212° Southwest 410 472 36,000  Level Montreal Center
Sat 01:51:55 PM 57.4167 -69.2000 208° Southwest 410 472 36,000  Level Montreal Center
Sat 01:52:55 PM 57.3167 -69.3167 212° Southwest 410 472 36,000  Level Montreal Center
Sat 01:53:55 PM 57.2333 -69.4333 217° Southwest 410 472 36,000  Level Montreal Center
Sat 01:56:08 PM 57.0000 -69.7167 214° Southwest 420 483 36,000  Level Gander Center
Sat 01:57:08 PM 56.9000 -69.8167 209° Southwest 410 472 36,000  Level Gander Center
Sat 01:58:08 PM 56.8167 -69.9500 221° Southwest 410 472 36,000  Level Gander Center
Sat 01:58:55 PM 56.7333 -69.9833 192° South 410 472 36,000  Level Montreal Center
Sat 01:59:55 PM 56.6333 -70.0833 209° Southwest 420 483 36,000  Level Montreal Center
Sat 02:00:55 PM 56.5167 -70.1833 205° Southwest 420 483 36,000  Level Montreal Center
Sat 02:01:55 PM 56.4333 -70.3000 218° Southwest 420 483 36,000  Level Montreal Center
Sat 02:02:55 PM 56.3333 -70.4333 216° Southwest 430 495 36,000  Level Montreal Center
Sat 02:03:55 PM 56.2167 -70.5333 205° Southwest 430 495 36,000  Level Montreal Center
Sat 02:04:55 PM 56.1167 -70.6500 213° Southwest 430 495 36,000  Level Montreal Center
Sat 02:05:55 PM 56.0167 -70.7500 209° Southwest 430 495 36,000  Level Montreal Center
Sat 02:06:55 PM 55.9167 -70.8500 209° Southwest 430 495 36,000  Level Montreal Center
Sat 02:07:55 PM 55.8167 -70.9500 209° Southwest 430 495 36,000  Level Montreal Center
Sat 02:08:55 PM 55.7000 -71.0667 209° Southwest 430 495 36,000  Level Montreal Center
Sat 02:09:55 PM 55.6000 -71.1667 209° Southwest 430 495 36,000  Level Montreal Center
Sat 02:10:55 PM 55.5000 -71.2667 210° Southwest 420 483 36,000  Level Montreal Center
Sat 02:11:55 PM 55.3833 -71.3667 206° Southwest 420 483 36,000  Level Montreal Center
Sat 02:12:55 PM 55.3000 -71.5000 222° Southwest 420 483 36,000  Level Montreal Center
Sat 02:13:55 PM 55.1833 -71.6000 206° Southwest 420 483 36,000  Level Montreal Center
Sat 02:14:55 PM 55.0833 -71.7000 210° Southwest 420 483 36,000  Level Montreal Center
Sat 02:15:55 PM 54.9833 -71.8000 210° Southwest 430 495 36,000  Level Montreal Center
Sat 02:16:55 PM 54.8667 -71.9000 206° Southwest 430 495 36,000  Level Montreal Center
Sat 02:17:55 PM 54.7667 -72.0000 210° Southwest 430 495 36,000  Level Montreal Center
Sat 02:18:55 PM 54.6833 -72.0833 210° Southwest 430 495 36,000  Level Montreal Center
Sat 02:19:55 PM 54.5667 -72.2167 214° Southwest 430 495 36,000  Level Montreal Center
Sat 02:20:55 PM 54.4667 -72.3167 210° Southwest 430 495 36,000  Level Montreal Center
Sat 02:21:55 PM 54.3667 -72.4000 206° Southwest 430 495 36,000  Level Montreal Center
Sat 02:22:55 PM 54.2500 -72.5000 207° Southwest 430 495 36,000  Level Montreal Center
Sat 02:23:55 PM 54.1500 -72.6000 210° Southwest 430 495 36,000  Level Montreal Center
Sat 02:24:55 PM 54.0333 -72.7000 207° Southwest 430 495 36,000  Level Montreal Center
Sat 02:25:55 PM 53.9333 -72.8167 214° Southwest 430 495 36,000  Level Montreal Center
Sat 02:26:55 PM 53.8167 -72.9167 207° Southwest 430 495 36,000  Level Montreal Center
Sat 02:27:55 PM 53.7167 -73.0000 206° Southwest 430 495 36,000  Level Montreal Center
Sat 02:28:55 PM 53.6167 -73.1000 211° Southwest 430 495 36,000  Level Montreal Center
Sat 02:29:55 PM 53.5167 -73.1833 206° Southwest 430 495 36,000  Level Montreal Center
Sat 02:30:55 PM 53.4167 -73.2833 211° Southwest 430 495 36,000  Level Montreal Center
Sat 02:32:55 PM 53.2000 -73.4833 209° Southwest 430 495 36,000  Level Montreal Center
Sat 02:33:55 PM 53.1000 -73.5833 211° Southwest 430 495 36,000  Level Montreal Center
Sat 02:34:55 PM 52.9833 -73.6667 203° Southwest 440 506 36,000  Level Montreal Center
Sat 02:35:55 PM 52.8833 -73.7667 211° Southwest 430 495 36,000  Level Montreal Center
Sat 02:36:55 PM 52.7667 -73.8500 203° Southwest 430 495 36,000  Level Montreal Center
Sat 02:37:55 PM 52.6500 -73.9667 211° Southwest 440 506 36,000  Level Montreal Center
Sat 02:38:55 PM 52.5500 -74.0500 207° Southwest 440 506 36,000  Level Montreal Center
Sat 02:39:55 PM 52.4333 -74.1333 204° Southwest 430 495 36,000  Level Montreal Center
Sat 02:40:55 PM 52.3333 -74.2333 211° Southwest 430 495 36,000  Level Montreal Center
Sat 02:41:55 PM 52.2167 -74.3167 204° Southwest 430 495 36,000  Level Montreal Center
Sat 02:42:55 PM 52.1167 -74.4000 207° Southwest 430 495 36,000  Level Montreal Center
Sat 02:43:55 PM 52.0000 -74.5167 212° Southwest 440 506 36,000  Level Montreal Center
Sat 02:44:55 PM 51.9000 -74.6000 207° Southwest 440 506 36,000  Level Montreal Center
Sat 02:45:55 PM 51.7833 -74.6833 204° Southwest 440 506 36,000  Level Montreal Center
Sat 02:46:55 PM 51.6833 -74.7667 207° Southwest 440 506 36,000  Level Montreal Center
Sat 02:47:55 PM 51.5667 -74.8833 212° Southwest 440 506 36,000  Level Montreal Center
Sat 02:48:55 PM 51.4667 -74.9667 207° Southwest 440 506 36,000  Level Montreal Center
Sat 02:49:55 PM 51.3500 -75.0500 204° Southwest 440 506 36,000  Level Montreal Center
Sat 02:50:55 PM 51.2500 -75.1333 208° Southwest 440 506 36,000  Level Montreal Center
Sat 02:51:55 PM 51.1333 -75.2333 208° Southwest 440 506 36,000  Level Montreal Center
Sat 02:52:55 PM 51.0167 -75.3167 204° Southwest 440 506 36,000  Level Montreal Center
Sat 02:53:55 PM 50.9000 -75.4000 204° Southwest 440 506 36,000  Level Montreal Center
Sat 02:54:55 PM 50.8000 -75.4833 208° Southwest 440 506 36,000  Level Montreal Center
Sat 02:55:55 PM 50.6833 -75.6000 212° Southwest 450 518 36,000  Level Montreal Center
Sat 02:56:55 PM 50.5833 -75.6667 203° Southwest 450 518 36,000  Level Montreal Center
Sat 02:58:55 PM 50.3500 -75.8333 205° Southwest 440 506 36,000  Level Montreal Center
Sat 02:59:55 PM 50.2500 -75.9167 208° Southwest 440 506 36,000  Level Montreal Center
Sat 03:00:55 PM 50.1333 -76.0167 209° Southwest 440 506 36,000  Level Montreal Center
Sat 03:01:55 PM 50.0333 -76.1000 208° Southwest 450 518 36,000  Level Montreal Center
Sat 03:02:55 PM 49.9000 -76.1667 198° South 450 518 36,000  Level Montreal Center
Sat 03:03:55 PM 49.7833 -76.2833 213° Southwest 450 518 36,000  Level Montreal Center
Sat 03:04:55 PM 49.6667 -76.3500 200° South 450 518 36,000  Level Montreal Center
Sat 03:05:55 PM 49.5667 -76.4333 208° Southwest 440 506 36,000  Level Montreal Center
Sat 03:06:55 PM 49.4500 -76.5333 209° Southwest 460 529 36,000  Level Montreal Center
Sat 03:07:55 PM 49.3500 -76.6167 209° Southwest 440 506 36,000  Level Montreal Center
Sat 03:08:55 PM 49.2333 -76.6833 200° South 450 518 36,000  Level Montreal Center
Sat 03:09:55 PM 49.1167 -76.7667 205° Southwest 440 506 36,000  Level Montreal Center
Sat 03:10:55 PM 49.0167 -76.8667 213° Southwest 450 518 36,000  Level Montreal Center
Sat 03:11:55 PM 48.9000 -76.9333 201° Southwest 450 518 36,000  Level Montreal Center
Sat 03:12:55 PM 48.7833 -77.0167 205° Southwest 450 518 36,000  Level Montreal Center
Sat 03:13:55 PM 48.6500 -77.1167 206° Southwest 450 518 36,000  Level Montreal Center
Sat 03:14:55 PM 48.5500 -77.1833 204° Southwest 450 518 36,000  Level Montreal Center
Sat 03:15:55 PM 48.4333 -77.2500 201° Southwest 450 518 36,000  Level Montreal Center
Sat 03:16:55 PM 48.3167 -77.3333 205° Southwest 450 518 36,000  Level Montreal Center
Sat 03:17:55 PM 48.2000 -77.4333 210° Southwest 450 518 36,000  Level Montreal Center
Sat 03:18:55 PM 48.1000 -77.5000 204° Southwest 450 518 36,000  Level Montreal Center
Sat 03:19:55 PM 47.9833 -77.5667 201° Southwest 440 506 36,000  Level Montreal Center
Sat 03:20:55 PM 47.8833 -77.6667 214° Southwest 440 506 36,000  Level Montreal Center
Sat 03:21:55 PM 47.7667 -77.7333 201° Southwest 450 518 36,000  Level Montreal Center
Sat 03:22:55 PM 47.6333 -77.8167 203° Southwest 450 518 36,000  Level Montreal Center
Sat 03:23:55 PM 47.5333 -77.8833 204° Southwest 450 518 36,000  Level Montreal Center
Sat 03:24:55 PM 47.4167 -77.9833 210° Southwest 450 518 36,000  Level Montreal Center
Sat 03:25:55 PM 47.3000 -78.0500 201° Southwest 450 518 36,000  Level Montreal Center
Sat 03:26:55 PM 47.1833 -78.1333 206° Southwest 450 518 36,000  Level Montreal Center
Sat 03:27:55 PM 47.0833 -78.2167 210° Southwest 450 518 36,000  Level Montreal Center
Sat 03:28:55 PM 46.9667 -78.2833 201° Southwest 450 518 36,000  Level Montreal Center
Sat 03:29:55 PM 46.8333 -78.3500 199° South 450 518 36,000  Level Montreal Center
Sat 03:30:27 PM 46.7833 -78.3667 193° South 450 518 36,000  Level Toronto Center
Sat 03:36:41 PM 46.0835 -78.8562 205° Southwest 450 518 36,000  Level FlightAware ADS-B (CYYZ)
Sat 03:37:12 PM 46.0386 -78.8850 205° Southwest 449 517 36,000  Level FlightAware ADS-B (CYYZ)
Sat 03:37:41 PM 45.9682 -78.9301 205° Southwest 448 516 36,000  Level FlightAware ADS-B (CYYZ)
Sat 03:38:11 PM 45.9093 -78.9677 204° Southwest 447 514 36,000  Level FlightAware ADS-B (CYYZ)
Sat 03:38:41 PM 45.8592 -78.9995 204° Southwest 447 514 36,000  Level FlightAware ADS-B (CYYZ)
Sat 03:39:13 PM 45.7906 -79.0433 205° Southwest 444 511 36,000  Level FlightAware ADS-B (CYYZ)
Sat 03:39:41 PM 45.7444 -79.0727 204° Southwest 443 510 36,000  Level FlightAware ADS-B (CYYZ)
Sat 03:40:12 PM 45.6837 -79.1112 204° Southwest 443 510 36,000  Level FlightAware ADS-B (CYYZ)
Sat 03:40:42 PM 45.6224 -79.1499 204° Southwest 445 512 36,000  Level FlightAware ADS-B (CYYZ)
Sat 03:41:13 PM 45.5654 -79.1858 204° Southwest 445 512 36,000  Level FlightAware ADS-B (CYYZ)
Sat 03:41:42 PM 45.5132 -79.2186 204° Southwest 445 512 36,000  Level FlightAware ADS-B (CYYZ)
Sat 03:42:13 PM 45.4552 -79.2549 204° Southwest 445 512 36,000  Level FlightAware ADS-B (CYYZ)
Sat 03:42:41 PM 45.3980 -79.2907 204° Southwest 449 517 36,000  Level FlightAware ADS-B (CYYZ)
Sat 03:43:12 PM 45.3451 -79.3238 204° Southwest 451 519 36,000  Level FlightAware ADS-B (CYYZ)
Sat 03:43:42 PM 45.2823 -79.3629 204° Southwest 452 520 36,000  Level FlightAware ADS-B (CYYZ)
Sat 03:44:12 PM 45.2247 -79.3987 204° Southwest 452 520 36,000  Level FlightAware ADS-B (CYYZ)
Sat 03:44:42 PM 45.1704 -79.4324 204° Southwest 452 520 36,000  Level FlightAware ADS-B (CYYZ)
Sat 03:45:12 PM 45.1119 -79.4686 204° Southwest 452 520 36,000  Level FlightAware ADS-B (CYYZ)
Sat 03:45:41 PM 45.0568 -79.5027 204° Southwest 452 520 36,000  Level FlightAware ADS-B (CYYZ)
Sat 03:46:12 PM 44.9964 -79.5400 204° Southwest 451 519 36,000  Level FlightAware ADS-B (CYYZ)
Sat 03:46:43 PM 44.9388 -79.5754 204° Southwest 452 520 36,000  Level FlightAware ADS-B (CYYZ)
Sat 03:47:03 PM 44.9006 -79.5988 204° Southwest 454 522 36,000  Level FlightAware ADS-B (CYYZ)
Sat 03:47:33 PM 44.8648 -79.6209 204° Southwest 455 524 36,000  Level FlightAware ADS-B (CYYZ)
Sat 03:47:42 PM 44.8215 -79.6473 204° Southwest 456 525 36,000  Level FlightAware ADS-B (EPLB / LUZ)
Sat 03:48:08 PM 44.7717 -79.6777 204° Southwest 454 522 36,000  Level FlightAware ADS-B (CYYZ)
Sat 03:48:36 PM 44.7183 -79.7104 204° Southwest 454 522 36,000  Level FlightAware ADS-B (EPLB / LUZ)
Sat 03:48:39 PM 44.7118 -79.7144 204° Southwest 453 521 36,000  Level FlightAware ADS-B (CYYZ)
Sat 03:49:13 PM 44.6483 -79.7530 204° Southwest 452 520 36,000  Level FlightAware ADS-B (CYYZ)
Sat 03:49:17 PM 44.6393 -79.7585 203° Southwest 452 520 36,000  Level FlightAware ADS-B (EPLB / LUZ)
Sat 03:49:41 PM 44.5923 -79.7881 206° Southwest 448 516 36,000  Level FlightAware ADS-B (CYYZ)
Sat 03:49:49 PM 44.5786 -79.7979 208° Southwest 446 513 36,000  Level FlightAware ADS-B (EPLB / LUZ)
Sat 03:50:22 PM 44.5211 -79.8463 214° Southwest 434 499 36,000  Level FlightAware ADS-B (CYYZ)
Sat 03:50:30 PM 44.5094 -79.8571 214° Southwest 433 498 36,000  Level FlightAware ADS-B (EPLB / LUZ)
Sat 03:50:53 PM 44.4703 -79.8934 214° Southwest 432 497 36,000  Level FlightAware ADS-B (CYYZ)
Sat 03:51:22 PM 44.4219 -79.9377 213° Southwest 431 496 36,000  Level FlightAware ADS-B (EPLB / LUZ)
Sat 03:51:53 PM 44.3702 -79.9844 213° Southwest 431 496 36,000  Level FlightAware ADS-B (CYYZ)
Sat 03:52:13 PM 44.3365 -80.0147 213° Southwest 433 498 36,000  Level FlightAware ADS-B (EPLB / LUZ)
Sat 03:52:23 PM 44.3200 -80.0294 213° Southwest 432 497 36,000  Level FlightAware ADS-B (CYYZ)
Sat 03:52:53 PM 44.2708 -80.0734 213° Southwest 432 497 36,000  Level FlightAware ADS-B (CYYZ)
Sat 03:53:22 PM 44.2201 -80.1187 213° Southwest 433 498 36,000  Level FlightAware ADS-B (CYYZ)
Sat 03:53:50 PM 44.1769 -80.1572 213° Southwest 434 499 36,000  Level FlightAware ADS-B (EPLB / LUZ)
Sat 03:53:52 PM 44.1687 -80.1646 213° Southwest 433 498 36,000  Level FlightAware ADS-B (CYYZ)
Sat 03:54:22 PM 44.1178 -80.2097 213° Southwest 434 499 36,000  Level FlightAware ADS-B (CYYZ)
Sat 03:54:38 PM 44.0911 -80.2335 213° Southwest 434 499 36,000  Level FlightAware ADS-B (EPLB / LUZ)
Sat 03:54:53 PM 44.0665 -80.2552 213° Southwest 435 501 36,000  Level FlightAware ADS-B (CYYZ)
Sat 03:55:22 PM 44.0172 -80.2989 213° Southwest 437 503 36,000  Level FlightAware ADS-B (EPLB / LUZ)
Sat 03:55:23 PM 44.0158 -80.3002 213° Southwest 436 502 36,000  Level FlightAware ADS-B (CYYZ)
Sat 03:55:52 PM 43.9653 -80.3449 213° Southwest 437 503 36,000  Level FlightAware ADS-B (CYYZ)
Sat 03:55:55 PM 43.9729 -80.3382 213° Southwest 438 504 36,000  Level FlightAware ADS-B (CYKF)
Sat 03:56:21 PM 43.9166 -80.3879 213° Southwest 437 503 36,000  Level FlightAware ADS-B (CYYZ)
Sat 03:56:38 PM 43.8912 -80.4102 213° Southwest 438 504 36,000  Level FlightAware ADS-B (EPLB / LUZ)
Sat 03:56:52 PM 43.8649 -80.4334 213° Southwest 436 502 36,000  Level FlightAware ADS-B (CYYZ)
Sat 03:57:09 PM 43.8370 -80.4580 213° Southwest 436 502 36,000  Level FlightAware ADS-B (EPLB / LUZ)
Sat 03:57:23 PM 43.8141 -80.4781 213° Southwest 436 502 36,000  Level FlightAware ADS-B (CYYZ)
Sat 03:57:42 PM 43.7949 -80.4950 212° Southwest 437 503 36,000  Level FlightAware ADS-B (EPLB / LUZ)
Sat 03:57:51 PM 43.7633 -80.5227 213° Southwest 436 502 36,000  Level FlightAware ADS-B (CYYZ)
Sat 03:58:14 PM 43.7338 -80.5484 212° Southwest 437 503 36,000  Level FlightAware ADS-B
Sat 03:58:21 PM 43.7113 -80.5681 213° Southwest 437 503 36,000  Level FlightAware ADS-B (CYYZ)
Sat 03:58:45 PM 43.6756 -80.5993 212° Southwest 438 504 36,000  Level FlightAware ADS-B (EPLB / LUZ)
Sat 03:58:52 PM 43.6595 -80.6132 213° Southwest 437 503 36,000  Level FlightAware ADS-B (CYYZ)
Sat 03:59:20 PM 43.6115 -80.6551 213° Southwest 435 501 36,000  Level FlightAware ADS-B (CYYZ)
Sat 03:59:36 PM 43.6017 -80.6637 212° Southwest 436 502 36,000  Level FlightAware ADS-B (EPLB / LUZ)
Sat 03:59:50 PM 43.5614 -80.6987 213° Southwest 435 501 36,000  Level FlightAware ADS-B (CYYZ)
Sat 04:00:14 PM 43.5276 -80.7280 212° Southwest 436 502 36,000  Level FlightAware ADS-B
Sat 04:00:22 PM 43.5106 -80.7429 213° Southwest 435 501 36,000  Level FlightAware ADS-B (CYYZ)
Sat 04:00:52 PM 43.4545 -80.7915 213° Southwest 433 498 36,000  Level FlightAware ADS-B (CYYZ)
Sat 04:00:55 PM 43.4494 -80.7959 212° Southwest 434 499 36,000  Level FlightAware ADS-B (CYKF)
Sat 04:01:23 PM 43.4029 -80.8362 213° Southwest 432 497 36,000  Level FlightAware ADS-B (CYYZ)
Sat 04:01:46 PM 43.3689 -80.8655 212° Southwest 434 499 36,000  Level FlightAware ADS-B (EPLB / LUZ)
Sat 04:01:52 PM 43.3519 -80.8801 213° Southwest 433 498 36,000  Level FlightAware ADS-B (CYYZ)
Sat 04:02:22 PM 43.3038 -80.9216 212° Southwest 434 499 36,000  Level FlightAware ADS-B (EPLB / LUZ)
Sat 04:02:23 PM 43.3012 -80.9238 213° Southwest 433 498 36,000  Level FlightAware ADS-B (CYYZ)
Sat 04:02:53 PM 43.2500 -80.9678 213° Southwest 435 501 36,000  Level FlightAware ADS-B (CYYZ)
Sat 04:03:01 PM 43.2401 -80.9762 212° Southwest 436 502 36,000  Level FlightAware ADS-B (EPLB / LUZ)
Sat 04:03:23 PM 43.1997 -81.0109 213° Southwest 436 502 36,000  Level FlightAware ADS-B (CYYZ)
Sat 04:03:34 PM 43.1804 -81.0274 212° Southwest 437 503 36,000  Level FlightAware ADS-B (EPLB / LUZ)
Sat 04:03:53 PM 43.1492 -81.0541 213° Southwest 437 503 36,000  Level FlightAware ADS-B (CYYZ)
Sat 04:04:14 PM 43.1120 -81.0859 212° Southwest 438 504 36,000  Level FlightAware ADS-B (EPLB / LUZ)
Sat 04:04:22 PM 43.0959 -81.0997 213° Southwest 438 504 36,000  Level FlightAware ADS-B (CYYZ)
Sat 04:04:46 PM 43.0565 -81.1331 211° Southwest 440 506 36,000  Level FlightAware ADS-B (EPLB / LUZ)
Sat 04:04:57 PM 43.0348 -81.1495 208° Southwest 443 510 36,000  Level FlightAware ADS-B (CYYZ)
Sat 04:05:25 PM 42.9835 -81.1809 203° Southwest 446 513 36,000  Level FlightAware ADS-B (EPLB / LUZ)
Sat 04:05:33 PM 42.9695 -81.1894 205° Southwest 444 511 36,000  Level FlightAware ADS-B (CYYZ)
Sat 04:06:03 PM 42.9145 -81.2245 206° Southwest 443 510 36,000  Level FlightAware ADS-B (CYYZ)
Sat 04:06:17 PM 42.8903 -81.2399 205° Southwest 443 510 36,000  Level FlightAware ADS-B (EPLB / LUZ)
Sat 04:06:33 PM 42.8600 -81.2589 205° Southwest 442 509 36,000  Level FlightAware ADS-B (CYYZ)
Sat 04:06:54 PM 42.8519 -81.2640 205° Southwest 441 507 36,000  Level FlightAware ADS-B (CYKF)
Sat 04:07:03 PM 42.8023 -81.2947 205° Southwest 440 506 36,000  Level FlightAware ADS-B (CYYZ)
Sat 04:07:24 PM 42.7632 -81.3188 204° Southwest 440 506 36,000  Level FlightAware ADS-B (EPLB / LUZ)
Sat 04:07:32 PM 42.7481 -81.3280 205° Southwest 439 505 36,000  Level FlightAware ADS-B (CYYZ)
Sat 04:07:54 PM 42.7169 -81.3471 204° Southwest 440 506 36,000  Level FlightAware ADS-B (CYKF)
Sat 04:08:03 PM 42.6905 -81.3633 205° Southwest 439 505 36,000  Level FlightAware ADS-B (CYYZ)
Sat 04:08:32 PM 42.6387 -81.3950 205° Southwest 439 505 36,000  Level FlightAware ADS-B (CYYZ)
Sat 04:08:41 PM 42.6241 -81.4039 204° Southwest 440 506 36,000  Level FlightAware ADS-B (EPLB / LUZ)
Sat 04:09:02 PM 42.5802 -81.4307 205° Southwest 439 505 36,000  Level FlightAware ADS-B (CYYZ)
Sat 04:09:32 PM 42.5243 -81.4648 205° Southwest 441 507 36,000  Level FlightAware ADS-B (CYYZ)
Sat 04:09:46 PM 42.5036 -81.4775 204° Southwest 442 509 36,000  Level FlightAware ADS-B (EPLB / LUZ)
Sat 04:10:03 PM 42.4683 -81.4989 205° Southwest 442 509 36,000  Level FlightAware ADS-B (CYYZ)
Sat 04:10:33 PM 42.4149 -81.5314 205° Southwest 442 509 36,000  Level FlightAware ADS-B (CYYZ)
Sat 04:10:38 PM 42.4138 -81.5320 204° Southwest 442 509 36,000  Level FlightAware ADS-B (EPLB / LUZ)
Sat 04:11:02 PM 42.3562 -81.5670 205° Southwest 441 507 36,000  Level FlightAware ADS-B (CYYZ)
Sat 04:11:33 PM 42.3006 -81.6007 205° Southwest 440 506 36,000  Level FlightAware ADS-B (CYYZ)
Sat 04:12:03 PM 42.2451 -81.6342 205° Southwest 439 505 36,000  Level FlightAware ADS-B (CYYZ)
Sat 04:12:33 PM 42.1894 -81.6680 205° Southwest 440 506 36,000  Level FlightAware ADS-B (CYYZ)
Sat 04:13:03 PM 42.1352 -81.6990 201° Southwest 445 512 36,000  Level FlightAware ADS-B (CYYZ)
Sat 04:13:42 PM 42.0550 -81.7348 199° South 440 506 36,000  Level FlightAware ADS-B (CYYZ)
Sat 04:14:12 PM 41.9988 -81.7602 200° South 438 504 36,000  Level FlightAware ADS-B (CYYZ)
Sat 04:14:42 PM 41.9398 -81.7877 200° South 438 504 36,000  Level FlightAware ADS-B (CYYZ)
Sat 04:15:12 PM 41.8848 -81.8135 200° South 437 503 36,000  Level FlightAware ADS-B (CYYZ)
Sat 04:15:42 PM 41.8262 -81.8404 199° South 436 502 36,000  Level FlightAware ADS-B (CYYZ)
Sat 04:16:12 PM 41.7879 -81.8580 199° South 436 502 36,000  Level FlightAware ADS-B (CYYZ)
Sat 04:16:42 PM 41.7125 -81.8925 199° South 436 502 36,000  Level FlightAware ADS-B (CYYZ)
Sat 04:17:12 PM 41.6623 -81.9153 199° South 438 504 36,000  Level FlightAware ADS-B (CYYZ)
Sat 04:17:43 PM 41.5952 -81.9458 199° South 439 505 36,000  Level FlightAware ADS-B (CYYZ)
Sat 04:18:12 PM 41.5415 -81.9702 199° South 439 505 36,000  Level FlightAware ADS-B (CYYZ)
Sat 04:18:40 PM 41.5013 -81.9884 199° South 439 505 36,000  Level FlightAware ADS-B (CYYZ)
Sat 04:19:08 PM 41.4651 -82.0048 199° South 438 504 36,000  Level FlightAware ADS-B (CYYZ)
Sat 04:19:52 PM 41.3592 -82.0514 199° South 438 504 36,000  Level Indianapolis Center
Sat 04:20:32 PM 41.2856 -82.0856 199° South 437 503 36,000  Level Cleveland Center
Sat 04:21:34 PM 41.1694 -82.1386 199° South 435 501 36,000  Level Cleveland Center
Sat 04:22:36 PM 41.0553 -82.1903 199° South 433 498 36,000 145 Level Cleveland Center
Sat 04:23:38 PM 40.9403 -82.2403 198° South 433 498 36,300 726 Climbing Cleveland Center
Sat 04:24:40 PM 40.8053 -82.3019 199° South 433 498 37,500 829 Climbing Cleveland Center
Sat 04:25:41 PM 40.6889 -82.3519 198° South 435 501 38,000 244 Climbing Cleveland Center
Sat 04:26:43 PM 40.5728 -82.4047 199° South 436 502 38,000  Level Cleveland Center
Sat 04:32:36 PM 39.8487 -82.6090 183° South 468 539 38,000  Level FlightAware ADS-B
Sat 04:33:07 PM 39.7874 -82.6131 183° South 468 539 38,000  Level FlightAware ADS-B
Sat 04:33:53 PM 39.6831 -82.6202 183° South 466 536 38,000  Level FlightAware ADS-B
Sat 04:34:34 PM 39.5952 -82.6260 183° South 463 533 38,000  Level FlightAware ADS-B
Sat 04:35:10 PM 39.5188 -82.6311 183° South 458 527 38,000  Level FlightAware ADS-B
Sat 04:35:40 PM 39.4563 -82.6353 183° South 456 525 38,000  Level FlightAware ADS-B
Sat 04:36:23 PM 39.3722 -82.6410 183° South 454 522 38,000  Level FlightAware ADS-B
Sat 04:36:53 PM 39.3021 -82.6456 183° South 454 522 38,000  Level FlightAware ADS-B
Sat 04:37:36 PM 39.2127 -82.6517 183° South 454 522 38,000  Level FlightAware ADS-B
Sat 04:38:06 PM 39.1498 -82.6558 183° South 452 520 38,000  Level FlightAware ADS-B
Sat 04:38:50 PM 39.0595 -82.6618 183° South 451 519 38,000  Level FlightAware ADS-B
Sat 04:39:29 PM 38.9819 -82.6669 183° South 451 519 38,000  Level FlightAware ADS-B
Sat 04:40:14 PM 38.8845 -82.6732 183° South 452 520 38,000  Level FlightAware ADS-B
Sat 04:40:44 PM 38.8202 -82.6776 183° South 453 521 38,000  Level FlightAware ADS-B
Sat 04:41:15 PM 38.7596 -82.6816 183° South 453 521 38,000  Level FlightAware ADS-B
Sat 04:41:48 PM 38.6923 -82.6859 183° South 451 519 38,000  Level FlightAware ADS-B
Sat 04:42:34 PM 38.6036 -82.6919 183° South 452 520 38,000  Level Indianapolis Center
Sat 04:43:36 PM 38.4786 -82.7008 183° South 452 520 38,000  Level Indianapolis Center
Sat 04:44:38 PM 38.3525 -82.7086 183° South 452 520 38,000  Level Indianapolis Center
Sat 04:45:39 PM 38.2256 -82.7158 183° South 453 521 38,000  Level Indianapolis Center
Sat 04:46:41 PM 38.0772 -82.7250 183° South 453 521 38,000  Level Indianapolis Center
Sat 04:47:43 PM 37.9478 -82.7353 184° South 458 527 38,000  Level Indianapolis Center
Sat 04:48:45 PM 37.8197 -82.7433 183° South 459 528 38,000  Level Indianapolis Center
Sat 04:49:47 PM 37.6936 -82.7594 186° South 457 526 38,000  Level Indianapolis Center
Sat 04:50:48 PM 37.5822 -82.8122 201° Southwest 432 497 38,000  Level Indianapolis Center
Sat 04:51:50 PM 37.4808 -82.8811 208° Southwest 418 481 38,000  Level Indianapolis Center
Sat 04:52:52 PM 37.3631 -82.9586 208° Southwest 415 478 38,000  Level Indianapolis Center
Sat 04:53:54 PM 37.2628 -83.0244 208° Southwest 411 473 38,000  Level Indianapolis Center
Sat 04:54:55 PM 37.1631 -83.0900 208° Southwest 410 472 38,000  Level Indianapolis Center
Sat 04:55:57 PM 37.0633 -83.1553 208° Southwest 410 472 38,000  Level Indianapolis Center
Sat 04:56:59 PM 36.9633 -83.2192 207° Southwest 410 472 38,000  Level Indianapolis Center
Sat 04:58:00 PM 36.8472 -83.2950 208° Southwest 409 471 38,000  Level Indianapolis Center
Sat 04:59:02 PM 36.7469 -83.3586 207° Southwest 409 471 38,000  Level Indianapolis Center
Sat 05:00:04 PM 36.6469 -83.4228 207° Southwest 408 470 38,000  Level Indianapolis Center
Sat 05:01:06 PM 36.5461 -83.4872 207° Southwest 408 470 38,000  Level Indianapolis Center
Sat 05:02:07 PM 36.4489 -83.5494 207° Southwest 408 470 38,000  Level Indianapolis Center
Sat 05:03:09 PM 36.3494 -83.6136 207° Southwest 405 466 38,000  Level Indianapolis Center
Sat 05:04:11 PM 36.2300 -83.6903 207° Southwest 405 466 38,000  Level Indianapolis Center
Sat 05:05:12 PM 36.1300 -83.7533 207° Southwest 404 465 38,000  Level Indianapolis Center
Sat 05:06:14 PM 36.0294 -83.8158 207° Southwest 404 465 38,000  Level Indianapolis Center
Sat 05:11:32 PM 35.3432 -84.0309 191° South 430 495 38,000  Level FlightAware ADS-B (KDZJ)
Sat 05:12:24 PM 35.2422 -84.0553 191° South 423 487 38,000  Level FlightAware ADS-B (KDZJ)
Sat 05:13:00 PM 35.1717 -84.0722 191° South 424 488 38,000  Level FlightAware ADS-B (KDZJ)
Sat 05:13:45 PM 35.0830 -84.0932 191° South 424 488 38,000  Level FlightAware ADS-B (KDZJ)
Sat 05:14:25 PM 35.0051 -84.1120 191° South 424 488 38,000  Level FlightAware ADS-B (KDZJ)
Sat 05:15:05 PM 34.9265 -84.1307 191° South 424 488 38,000  Level FlightAware ADS-B (KDZJ)
Sat 05:15:44 PM 34.8496 -84.1490 191° South 430 495 38,000  Level FlightAware ADS-B (KDZJ)
Sat 05:16:23 PM 34.7739 -84.1670 191° South 429 494 38,000  Level FlightAware ADS-B (KDZJ)
Sat 05:17:04 PM 34.6935 -84.1861 191° South 430 495 38,000  Level FlightAware ADS-B (KDZJ)
Sat 05:17:44 PM 34.6155 -84.2045 191° South 424 488 38,000  Level FlightAware ADS-B (KDZJ)
Sat 05:18:26 PM 34.5339 -84.2239 191° South 424 488 38,000  Level FlightAware ADS-B (KDZJ)
Sat 05:19:05 PM 34.4562 -84.2422 191° South 425 489 38,000  Level FlightAware ADS-B (KDZJ)
Sat 05:19:45 PM 34.3774 -84.2607 191° South 425 489 38,000 -150 Level FlightAware ADS-B (KDZJ)
Sat 05:20:25 PM 34.2993 -84.2790 191° South 426 490 37,800 -444 Descending FlightAware ADS-B (KDZJ)
Sat 05:21:06 PM 34.2190 -84.2979 191° South 428 493 37,400 -525 Descending FlightAware ADS-B (KDZJ)
Sat 05:21:45 PM 34.1409 -84.3162 191° South 429 494 37,100 -304 Descending FlightAware ADS-B (KDZJ)
Sat 05:22:25 PM 34.0616 -84.3347 191° South 430 495 37,000 -76 Descending FlightAware ADS-B (KDZJ)
Sat 05:23:04 PM 33.9863 -84.3522 191° South 440 506 37,000  Level FlightAware ADS-B (KDZJ)
Sat 05:24:27 PM 33.9128 -84.3717 191° South 439 505 37,000  Level Atlanta Center
Sat 05:25:27 PM 33.7875 -84.4014 191° South 450 518 37,000  Level Atlanta Center
Sat 05:26:27 PM 33.6664 -84.4281 190° South 445 512 37,000  Level Atlanta Center
Sat 05:27:27 PM 33.5411 -84.4375 184° South 450 518 37,000  Level Atlanta Center
Sat 05:28:27 PM 33.4053 -84.4344 179° South 476 548 37,000  Level Atlanta Center
Sat 05:29:27 PM 33.2758 -84.4339 180° South 476 548 37,000  Level Atlanta Center
Sat 05:30:27 PM 33.1467 -84.4283 178° South 471 542 37,000  Level Atlanta Center
Sat 05:31:27 PM 33.0131 -84.4303 181° South 471 542 37,000  Level Atlanta Center
Sat 05:32:27 PM 32.8836 -84.4272 179° South 472 543 37,000  Level Atlanta Center
Sat 05:33:27 PM 32.7394 -84.4167 176° South 472 543 37,000  Level Atlanta Center
Sat 05:34:27 PM 32.6081 -84.4186 181° South 472 543 37,000  Level Atlanta Center
Sat 05:35:27 PM 32.4850 -84.4156 179° South 478 550 37,000  Level Atlanta Center
Sat 05:36:27 PM 32.3408 -84.4100 178° South 478 550 37,000  Level Atlanta Center
Sat 05:37:27 PM 32.2197 -84.4094 180° South 478 550 37,000  Level Atlanta Center
Sat 05:38:28 PM 32.0844 -84.4056 179° South 463 533 37,000  Level Jacksonville Center
Sat 05:43:54 PM 31.3500 -84.3894 179° South 479 551 37,000  Level FlightAware ADS-B (KONZ)
Sat 05:44:57 PM 31.2159 -84.3867 179° South 479 551 37,000  Level FlightAware ADS-B (KONZ)
Sat 05:45:39 PM 31.1185 -84.3849 179° South 482 555 37,000  Level FlightAware ADS-B (KONZ)
Sat 05:46:09 PM 31.0609 -84.3837 179° South 483 556 37,000  Level FlightAware ADS-B (KONZ)
Sat 05:46:49 PM 30.9597 -84.3818 179° South 484 557 37,000  Level FlightAware ADS-B (KONZ)
Sat 05:47:28 PM 30.8721 -84.3801 179° South 485 558 37,000  Level FlightAware ADS-B (KONZ)
Sat 05:48:15 PM 30.7672 -84.3781 179° South 487 560 37,000  Level FlightAware ADS-B (KONZ)
Sat 05:48:47 PM 30.7013 -84.3741 175° South 497 572 37,000  Level FlightAware ADS-B (KONZ)
Sat 05:49:24 PM 30.6140 -84.3590 167° South 515 593 37,000  Level FlightAware ADS-B (KONZ)
Sat 05:49:54 PM 30.5397 -84.3369 163° South 523 602 37,000  Level FlightAware ADS-B (KONZ)
Sat 05:50:25 PM 30.4669 -84.3067 159° South 532 612 37,000  Level FlightAware ADS-B (KONZ)
Sat 05:50:59 PM 30.3918 -84.2655 152° Southeast 544 626 37,000  Level FlightAware ADS-B (KONZ)
Sat 05:51:39 PM 30.3126 -84.2137 151° Southeast 545 627 37,000  Level FlightAware ADS-B (KONZ)
Sat 05:52:13 PM 30.2274 -84.1583 151° Southeast 543 625 37,000  Level FlightAware ADS-B (KONZ)
Sat 05:52:48 PM 30.1518 -84.1093 151° Southeast 541 623 37,000  Level FlightAware ADS-B (KONZ)
Sat 05:53:49 PM 30.0181 -84.0224 151° Southeast 542 624 37,000  Level FlightAware ADS-B (KONZ)
Sat 05:54:28 PM 29.9508 -83.9808 151° Southeast 541 623 37,000  Level Jacksonville Center
Sat 05:55:28 PM 29.8200 -83.8956 151° Southeast 541 623 37,000  Level Jacksonville Center
Sat 05:56:28 PM 29.6847 -83.8297 157° South 535 616 37,000  Level Jacksonville Center
Sat 05:57:28 PM 29.5264 -83.7828 166° South 527 606 37,000  Level Jacksonville Center
Sat 05:58:28 PM 29.3869 -83.7386 165° South 527 606 37,000  Level Jacksonville Center
Sat 05:59:28 PM 29.2453 -83.6969 166° South 527 606 37,000  Level Jacksonville Center
Sat 06:00:29 PM 29.1056 -83.6531 165° South 527 606 37,000  Level Jacksonville Center
Sat 06:01:29 PM 28.9639 -83.6117 166° South 527 606 37,000  Level Jacksonville Center
Sat 06:02:29 PM 28.8244 -83.5681 165° South 527 606 37,000  Level Jacksonville Center
Sat 06:03:28 PM 28.6847 -83.5269 166° South 527 606 37,000  Level Jacksonville Center
Sat 06:05:23 PM 28.4347 -83.4108 158° South 531 611 37,000  Level Miami Center
Sat 06:06:23 PM 28.3006 -83.3347 153° Southeast 541 623 37,000  Level Miami Center
Sat 06:12:10 PM 27.4773 -83.1188 171° South 509 586 37,000  Level FlightAware ADS-B
Sat 06:12:42 PM 27.4166 -83.1079 171° South 508 585 37,000  Level FlightAware ADS-B
Sat 06:13:24 PM 27.3289 -83.0953 171° South 517 595 37,000  Level Miami Center
Sat 06:19:10 PM 26.5094 -82.9482 171° South 511 588 37,000  Level FlightAware ADS-B
Sat 06:19:49 PM 26.4150 -82.9316 171° South 512 589 37,000  Level FlightAware ADS-B
Sat 06:21:23 PM 26.1870 -82.8920 171° South 512 589 37,000  Level FlightAware ADS-B
Sat 06:22:13 PM 26.0711 -82.8717 171° South 511 588 37,000  Level FlightAware ADS-B
Sat 06:27:09 PM 25.3768 -82.7521 171° South 513 590 37,000 -194 Level FlightAware ADS-B
Sat 06:28:24 PM 25.2111 -82.7278 171° South 517 595 35,800 -985 Descending Miami Center
Sat 06:29:23 PM 25.0806 -82.7031 170° South 496 571 34,800 -1,008 Descending Miami Center
Sat 06:30:23 PM 24.9458 -82.6808 171° South 496 571 33,800 -1,100 Descending Miami Center
Sat 06:31:23 PM 24.8111 -82.6583 171° South 496 571 32,600 -1,450 Descending Miami Center
Sat 06:32:23 PM 24.6742 -82.6358 172° South 501 577 30,900 -1,700 Descending Miami Center
Sat 06:33:23 PM 24.5436 -82.6117 170° South 495 570 29,200 -1,600 Descending Miami Center
Sat 06:34:23 PM 24.4172 -82.5897 171° South 484 557 27,700 -1,750 Descending Miami Center
Sat 06:35:23 PM 24.2906 -82.5703 172° South 471 542 25,700 -1,800 Descending Miami Center
Sat 06:36:23 PM 24.1681 -82.5511 172° South 457 526 24,100 -1,550 Descending Miami Center
Sat 06:37:23 PM 24.0478 -82.5297 171° South 446 513 22,600 -1,500 Descending Miami Center
Sat 06:39:00 PM 23.8591 -82.4965 173° South  Level FlightAware Approximate
Sat 06:46:00 PM 23.0428 -82.4000 180° South  Level FlightAware Approximate
Sat 06:47:00 PM 22.9891 -82.4091 180° South  Level Estimated
Sat 06:48:00 PM 22.9891 -82.4091 180° South  Level Estimated
Sat 06:49:00 PM 22.9891 -82.4091 180° South  Level Estimated
Sat 06:50:00 PM 22.9891 -82.4091 180° South  Level Estimated
Sat 06:51:00 PM 22.9891 -82.4091 180° South  Level Estimated
Sat 06:52:00 PM 22.9891 -82.4091 180° South  Level Estimated
Sat 06:53:00 PM 22.9891 -82.4091 180° South  Level Estimated
Sat 06:54:00 PM 22.9891 -82.4091 180° South  Level Estimated
Sat 06:55:00 PM 22.9891 -82.4091 180° South  Level Estimated
Sat 06:56:00 PM 22.9891 -82.4091 180° South  Level Estimated
Sat 06:57:00 PM 22.9891 -82.4091 180° South  Level Estimated
Sat 06:58:00 PM 22.9891 -82.4091 180° South  Level Estimated
Sat 06:59:00 PM 22.9891 -82.4091 180° South  Level Estimated
Sat 07:00:00 PM 22.9891 -82.4091 180° South  Level Estimated
Sat 07:01:00 PM 22.9891 -82.4091 180° South  Level Estimated
Sat 07:02:00 PM 22.9891 -82.4091 180° South  Level Estimated
Sat 07:03:00 PM 22.9891 -82.4091 180° South  Level Estimated
Sat 07:04:00 PM 22.9891 -82.4091 180° South  Level Estimated
Sat 07:05:00 PM 22.9891 -82.4091 180° South  Level Estimated
Sat 07:06:00 PM 22.9891 -82.4091 180° South  Level Estimated
Sat 07:07:00 PM 22.9891 -82.4091 180° South  Level Estimated
Sat 07:08:00 PM 22.9891 -82.4091 180° South  Level Estimated
Sat 07:09:00 PM 22.9891 -82.4091 180° South  Level Estimated
Sat 07:10:00 PM 22.9891 -82.4091 180° South  Level Estimated

Login

Don't have an account? Register now (free) for customized features, flight alerts, and more!